Time;durP1;ratioP1;P1;durP2;ratioP2;P2;SDS_P1;SDS_P2;PMS_P1;PMS_P2;Temp;Humidity;BMP_temperature;BMP_pressure;BME280_temperature;BME280_humidity;BME280_pressure;Samples;Min_cycle;Max_cycle;Signal;HPM_P1;HPM_P2
2024/03/23 00:00:16;;;;;;;;;;;;;;;;;;6216643;23;19907;-92
2024/03/23 00:02:42;;;;;;;;;;;;;;;;;;6216310;23;19910;-92
2024/03/23 00:05:07;;;;;;;;;;;;;;;;;;6216201;23;19908;-93
2024/03/23 00:07:33;;;;;;;;;;;;;;;;;;6216235;23;19912;-93
2024/03/23 00:09:59;;;;;;;;;;;;;;;;;;6217891;23;19908;-92
2024/03/23 00:12:25;;;;;;;;;;;;;;;;;;6216450;23;19958;-91
2024/03/23 00:14:52;;;;;;;;;;;;;;;;;;6218102;23;19915;-93
2024/03/23 09:05:19;;;;;;;;;;;;;;;;;;6211291;22;19953;-91
2024/03/23 09:07:44;;;;;;;;;;;;;;;;;;6247470;23;19990;-92
2024/03/23 09:10:09;;;;;;;;;;;;;;;;;;6247413;23;19915;-90
2024/03/23 09:12:35;;;;;;;;;;;;;;;;;;6220677;23;19953;-92
2024/03/23 09:15:00;;;;;;;;;;;;;;;;;;6247108;23;20228;-90
2024/03/23 09:17:25;;;;;;;;;;;;;;;;;;6220536;23;19919;-92
2024/03/23 09:19:51;;;;;;;;;;;;;;;;;;6246864;23;19954;-90
2024/03/23 09:22:16;;;;;;;;;;;;;;;;;;6247837;23;19911;-91
2024/03/23 09:24:41;;;;;;;;;;;;;;;;;;6220483;23;19923;-92
2024/03/23 09:27:06;;;;;;;;;;;;;;;;;;6247290;23;19969;-92
2024/03/23 09:29:32;;;;;;;;;;;;;;;;;;6220640;23;19908;-92
2024/03/23 09:31:57;;;;;;;;;;;;;;;;;;6247330;23;19916;-91
2024/03/23 09:34:22;;;;;;;;;;;;;;;;;;6220734;23;19918;-92
2024/03/23 09:36:51;;;;;;;;;;;;;;;;;;6247381;23;19987;-92
2024/03/23 09:39:16;;;;;;;;;;;;;;;;;;6221870;23;19907;-92
2024/03/23 09:41:42;;;;;;;;;;;;;;;;;;6222678;23;20273;-92
2024/03/23 09:44:08;;;;;;;;;;;;;;;;;;6249705;23;19944;-92
2024/03/23 09:46:36;;;;;;;;;;;;;;;;;;6222490;23;20338;-92
2024/03/23 09:49:04;;;;;;;;;;;;;;;;;;6249477;23;20216;-91
2024/03/23 09:51:29;;;;;;;;;;;;;;;;;;6222156;23;19908;-91
2024/03/23 09:53:54;;;;;;;;;;;;;;;;;;6222248;23;19987;-91
2024/03/23 09:56:19;;;;;;;;;;;;;;;;;;6249394;23;19986;-92
2024/03/23 09:58:45;;;;;;;;;;;;;;;;;;6223022;23;20327;-91
2024/03/23 10:01:10;;;;;;;;;;;;;;;;;;6223106;23;20323;-91
2024/03/23 10:03:42;;;;;;;;;;;;;;;;;;6222396;23;20372;-91
2024/03/23 10:06:08;;;;;;;;;;;;;;;;;;6222088;23;19911;-91
2024/03/23 10:08:35;;;;;;;;;;;;;;;;;;6248723;23;19914;-92
2024/03/23 10:11:12;;;;;;;;;;;;;;;;;;6222246;23;20310;-92
2024/03/23 10:13:40;;;;;;;;;;;;;;;;;;6222211;23;19908;-92
2024/03/23 10:16:06;;;;;;;;;;;;;;;;;;6248930;23;19903;-91
2024/03/23 10:18:32;;;;;;;;;;;;;;;;;;6196848;23;19966;-90
2024/03/23 10:21:16;;;;;;;;;;;;;;;;;;6221998;23;19914;-92
2024/03/23 10:23:42;;;;;;;;;;;;;;;;;;6248853;23;19910;-91
2024/03/23 10:26:14;;;;;;;;;;;;;;;;;;6248414;23;20227;-91
2024/03/23 10:29:00;;;;;;;;;;;;;;;;;;6221868;23;20350;-92
2024/03/23 10:31:26;;;;;;;;;;;;;;;;;;6248589;23;19953;-92
2024/03/23 10:33:54;;;;;;;;;;;;;;;;;;6248768;23;19978;-90
2024/03/23 10:36:20;;;;;;;;;;;;;;;;;;6222212;23;20238;-92
2024/03/23 10:38:46;;;;;;;;;;;;;;;;;;6222147;23;19907;-92
2024/03/23 10:41:12;;;;;;;;;;;;;;;;;;6222814;23;19911;-93
2024/03/23 10:43:37;;;;;;;;;;;;;;;;;;6249144;23;19913;-93
2024/03/23 10:46:03;;;;;;;;;;;;;;;;;;6222280;23;20061;-93
2024/03/23 10:48:28;;;;;;;;;;;;;;;;;;6248819;23;19937;-92
2024/03/23 10:50:54;;;;;;;;;;;;;;;;;;6221410;23;19978;-93
2024/03/23 10:53:22;;;;;;;;;;;;;;;;;;6222295;23;19918;-95
2024/03/23 10:55:49;;;;;;;;;;;;;;;;;;6250471;23;19903;-96
2024/03/23 10:58:15;;;;;;;;;;;;;;;;;;6222812;23;19907;-96
2024/03/23 11:00:41;;;;;;;;;;;;;;;;;;6222084;23;20215;-91
2024/03/23 11:03:27;;;;;;;;;;;;;;;;;;6222021;23;19910;-88
2024/03/23 11:05:52;;;;;;;;;;;;;;;;;;6247733;23;19943;-92
2024/03/23 11:08:30;;;;;;;;;;;;;;;;;;6221313;23;19908;-92
2024/03/23 11:11:11;;;;;;;;;;;;;;;;;;6221831;23;19914;-95
2024/03/23 11:13:37;;;;;;;;;;;;;;;;;;6249009;23;19914;-89
2024/03/23 11:16:13;;;;;;;;;;;;;;;;;;6249021;23;19908;-94
2024/03/23 11:18:38;;;;;;;;;;;;;;;;;;6227302;23;19911;-96
2024/03/23 11:21:03;;;;;;;;;;;;;;;;;;6226948;23;19907;-96
2024/03/23 11:23:29;;;;;;;;;;;;;;;;;;6221736;23;19989;-93
2024/03/23 11:25:54;;;;;;;;;;;;;;;;;;6223019;23;19949;-93
2024/03/23 11:28:20;;;;;;;;;;;;;;;;;;6254200;22;19942;-96
2024/03/23 11:31:09;;;;;;;;;;;;;;;;;;6247976;23;19929;-96
2024/03/23 11:33:34;;;;;;;;;;;;;;;;;;6226711;23;19907;-93
2024/03/23 11:36:00;;;;;;;;;;;;;;;;;;6222243;23;19977;-93
2024/03/23 11:38:25;;;;;;;;;;;;;;;;;;6222230;23;19907;-96
2024/03/23 11:40:50;;;;;;;;;;;;;;;;;;6227378;23;20239;-95
2024/03/23 11:43:17;;;;;;;;;;;;;;;;;;6249571;23;19908;-96
2024/03/23 11:45:43;;;;;;;;;;;;;;;;;;6222519;23;19907;-95
2024/03/23 11:48:09;;;;;;;;;;;;;;;;;;6222828;23;19908;-96
2024/03/23 11:50:40;;;;;;;26.02;17.30;;;;;;;;;;6221239;23;19931;-96
2024/03/23 11:53:20;;;;;;;25.55;16.58;;;;;;;;;;6222489;23;20011;-95
2024/03/23 11:55:56;;;;;;;23.77;13.90;;;;;;;;;;6221193;23;20004;-95
2024/03/23 11:58:23;;;;;;;21.30;13.20;;;;;;;;;;6232028;23;19995;-96
2024/03/23 12:00:57;;;;;;;17.40;12.90;;;;;;;;;;6224396;23;20001;-96
2024/03/23 12:03:25;;;;;;;26.63;17.00;;;;;;;;;;6200816;23;20008;-95
2024/03/23 12:05:55;;;;;;;32.30;18.70;;;;;;;;;;6223688;23;20016;-96
2024/03/23 12:08:28;;;;;;;;;;;;;;;;;;6222878;23;20315;-96
2024/03/23 12:11:04;;;;;;;;;;;;;;;;;;6222725;23;20315;-95
2024/03/23 12:13:30;;;;;;;;;;;;;;;;;;6221897;23;19986;-96
2024/03/23 12:16:09;;;;;;;;;;;;;;;;;;6223825;23;19962;-96
2024/03/23 12:18:34;;;;;;;;;;;;;;;;;;6222274;23;19911;-91
2024/03/23 12:21:00;;;;;;;;;;;;;;;;;;6247736;23;20319;-93
2024/03/23 12:23:25;;;;;;;;;;;;;;;;;;6247306;23;20234;-92
2024/03/23 12:25:50;;;;;;;;;;;;;;;;;;6247422;23;19963;-89
2024/03/23 12:28:16;;;;;;;;;;;;;;;;;;6247669;23;19982;-88
2024/03/23 12:30:42;;;;;;;;;;;;;;;;;;6222057;23;19908;-95
2024/03/23 12:33:07;;;;;;;;;;;;;;;;;;6221615;23;19911;-95
2024/03/23 12:35:33;;;;;;;;;;;;;;;;;;6221571;23;19982;-96
2024/03/23 12:37:59;;;;;;;;;;;;;;;;;;6222691;23;19946;-96
2024/03/23 12:40:25;;;;;;;;;;;;;;;;;;6253121;23;19915;-96
2024/03/23 12:42:50;;;;;;;;;;;;;;;;;;6224446;23;19907;-96
2024/03/23 12:45:15;;;;;;;;;;;;;;;;;;6222736;23;19961;-96
2024/03/23 12:47:41;;;;;;;;;;;;;;;;;;6222886;23;19915;-96
2024/03/23 12:50:06;;;;;;;;;;;;;;;;;;6222028;23;20329;-96
2024/03/23 12:52:35;;;;;;;;;;;;;;;;;;6197486;23;20238;-96
2024/03/23 12:55:00;;;;;;;;;;;;;;;;;;6221601;23;19915;-95
2024/03/23 12:57:25;;;;;;;;;;;;;;;;;;6221462;23;19939;-93
2024/03/23 12:59:53;;;;;;;;;;;;;;;;;;6221126;23;19982;-95
2024/03/23 13:02:19;;;;;;;;;;;;;;;;;;6221386;23;19982;-95
2024/03/23 13:04:45;;;;;;;;;;;;;;;;;;6220915;23;19912;-94
2024/03/23 13:07:11;;;;;;;;;;;;;;;;;;6221745;23;19986;-96
2024/03/23 13:09:36;;;;;;;;;;;;;;;;;;6221156;23;19915;-96
2024/03/23 13:12:02;;;;;;;;;;;;;;;;;;6221367;23;19910;-94
2024/03/23 13:14:27;;;;;;;;;;;;;;;;;;6221390;23;19907;-95
2024/03/23 13:16:52;;;;;;;;;;;;;;;;;;6221188;23;19978;-94
2024/03/23 13:19:18;;;;;;;;;;;;;;;;;;6221310;23;19903;-95
2024/03/23 13:21:44;;;;;;;;;;;;;;;;;;6221299;23;19961;-95
2024/03/23 13:24:09;;;;;;;;;;;;;;;;;;6221375;23;19908;-94
2024/03/23 13:26:34;;;;;;;;;;;;;;;;;;6221107;23;19907;-93
2024/03/23 13:29:00;;;;;;;;;;;;;;;;;;6222462;23;19912;-94
2024/03/23 13:31:25;;;;;;;;;;;;;;;;;;6221396;23;19909;-92
2024/03/23 13:33:50;;;;;;;;;;;;;;;;;;6221287;23;19908;-93
2024/03/23 13:36:16;;;;;;;;;;;;;;;;;;6221187;23;19930;-94
2024/03/23 13:38:41;;;;;;;;;;;;;;;;;;6220800;23;19903;-94
2024/03/23 13:41:08;;;;;;;;;;;;;;;;;;6221662;23;19907;-95
2024/03/23 13:43:34;;;;;;;;;;;;;;;;;;6221308;23;19946;-93
2024/03/23 13:45:59;;;;;;;;;;;;;;;;;;6220946;23;19915;-94
2024/03/23 13:48:25;;;;;;;;;;;;;;;;;;6221348;23;20319;-95
2024/03/23 13:50:59;;;;;;;;;;;;;;;;;;6221144;23;19907;-94
2024/03/23 13:53:25;;;;;;;;;;;;;;;;;;6221180;23;19915;-94
2024/03/23 13:55:50;;;;;;;;;;;;;;;;;;6221231;23;19903;-94
2024/03/23 13:58:16;;;;;;;;;;;;;;;;;;6220799;23;20322;-94
2024/03/23 14:00:44;;;;;;;;;;;;;;;;;;6221068;23;19907;-95
2024/03/23 14:03:10;;;;;;;;;;;;;;;;;;6220790;23;19914;-94
2024/03/23 14:05:35;;;;;;;;;;;;;;;;;;6222473;23;19912;-93
2024/03/23 14:08:01;;;;;;;;;;;;;;;;;;6220998;23;19907;-92
2024/03/23 14:10:27;;;;;;;;;;;;;;;;;;6220642;23;19986;-93
2024/03/23 14:12:52;;;;;;;;;;;;;;;;;;6220614;23;19911;-90
2024/03/23 14:15:18;;;;;;;;;;;;;;;;;;6220050;23;19908;-94
2024/03/23 14:17:43;;;;;;;;;;;;;;;;;;6247226;23;19986;-93
2024/03/23 14:20:11;;;;;;;;;;;;;;;;;;6220232;23;19915;-90
2024/03/23 14:22:36;;;;;;;;;;;;;;;;;;6219260;23;19935;-91
2024/03/23 14:25:01;;;;;;;;;;;;;;;;;;6220210;23;19955;-90
2024/03/23 14:27:27;;;;;;;;;;;;;;;;;;6221650;23;19907;-89
2024/03/23 14:29:52;;;;;;;;;;;;;;;;;;6221394;23;19911;-90
2024/03/23 14:32:17;;;;;;;;;;;;;;;;;;6248470;23;20331;-89
2024/03/23 14:34:43;;;;;;;;;;;;;;;;;;6221725;23;20334;-90
2024/03/23 14:37:08;;;;;;;;;;;;;;;;;;6221626;23;19926;-90
2024/03/23 14:39:38;;;;;;;;;;;;;;;;;;6221362;23;19915;-89
2024/03/23 14:42:04;;;;;;;;;;;;;;;;;;6248519;23;20219;-90
2024/03/23 14:44:29;;;;;;;;;;;;;;;;;;6221778;23;19911;-90
2024/03/23 14:46:55;;;;;;;;;;;;;;;;;;6221476;23;19907;-90
2024/03/23 14:49:20;;;;;;;;;;;;;;;;;;6248309;23;19907;-90
2024/03/23 14:51:46;;;;;;;;;;;;;;;;;;6221524;23;19908;-90
2024/03/23 14:54:11;;;;;;;;;;;;;;;;;;6221672;23;19907;-90
2024/03/23 14:56:37;;;;;;;;;;;;;;;;;;6221324;23;19914;-90
2024/03/23 14:59:03;;;;;;;;;;;;;;;;;;6221369;23;20227;-90
2024/03/23 15:01:28;;;;;;;;;;;;;;;;;;6221305;23;19915;-90
2024/03/23 15:03:53;;;;;;;;;;;;;;;;;;6248199;23;19904;-90
2024/03/23 15:06:19;;;;;;;;;;;;;;;;;;6220836;23;20386;-89
2024/03/23 15:08:44;;;;;;;;;;;;;;;;;;6221162;23;20361;-90
2024/03/23 15:11:09;;;;;;;;;;;;;;;;;;6221196;23;19982;-90
2024/03/23 15:13:35;;;;;;;;;;;;;;;;;;6221470;23;19907;-90
2024/03/23 15:16:02;;;;;;;;;;;;;;;;;;6248006;23;20271;-90
2024/03/23 15:18:28;;;;;;;;;;;;;;;;;;6247873;23;19907;-90
2024/03/23 15:21:01;;;;;;;;;;;;;;;;;;6221324;23;19922;-89
2024/03/23 15:23:27;;;;;;;;;;;;;;;;;;6247972;23;19903;-90
2024/03/23 15:25:56;;;;;;;;;;;;;;;;;;6220756;23;19907;-90
2024/03/23 15:28:27;;;;;;;;;;;;;;;;;;6220983;23;20330;-91
2024/03/23 15:30:52;;;;;;;;;;;;;;;;;;6221081;23;19908;-90
2024/03/23 15:33:17;;;;;;;;;;;;;;;;;;6221002;23;19953;-89
2024/03/23 15:35:43;;;;;;;;;;;;;;;;;;6220822;23;19914;-90
2024/03/23 15:38:09;;;;;;;;;;;;;;;;;;6221180;23;19979;-91
2024/03/23 15:40:34;;;;;;;;;;;;;;;;;;6220612;23;19914;-90
2024/03/23 15:43:00;;;;;;;;;;;;;;;;;;6220706;23;19912;-90
2024/03/23 15:45:25;;;;;;;;;;;;;;;;;;6221103;23;19911;-90
2024/03/23 15:47:52;;;;;;;;;;;;;;;;;;6221580;23;19953;-90
2024/03/23 15:50:17;;;;;;;;;;;;;;;;;;6221005;23;19907;-90
2024/03/23 15:52:42;;;;;;;;;;;;;;;;;;6220893;23;19930;-90
2024/03/23 15:55:10;;;;;;;;;;;;;;;;;;6247790;23;19988;-90
2024/03/23 15:57:35;;;;;;;;;;;;;;;;;;6220827;23;20325;-90
2024/03/23 16:00:01;;;;;;;;;;;;;;;;;;6221480;23;19908;-90
2024/03/23 16:02:27;;;;;;;;;;;;;;;;;;6249350;23;19914;-90
2024/03/23 16:04:53;;;;;;;;;;;;;;;;;;6249252;23;19911;-90
2024/03/23 16:07:18;;;;;;;;;;;;;;;;;;6221423;23;20239;-90
2024/03/23 16:09:43;;;;;;;;;;;;;;;;;;6220702;23;19907;-90
2024/03/23 16:12:08;;;;;;;;;;;;;;;;;;6247685;23;19982;-90
2024/03/23 16:14:34;;;;;;;;;;;;;;;;;;6247811;23;19908;-90
2024/03/23 16:16:59;;;;;;;;;;;;;;;;;;6247562;23;20285;-89
2024/03/23 16:19:24;;;;;;;;;;;;;;;;;;6247616;23;19914;-90
2024/03/23 16:21:50;;;;;;;;;;;;;;;;;;6220817;23;19911;-90
2024/03/23 16:24:15;;;;;;;;;;;;;;;;;;6220794;23;19903;-90
2024/03/23 16:26:40;;;;;;;;;;;;;;;;;;6248493;23;19907;-90
2024/03/23 16:29:06;;;;;;;;;;;;;;;;;;6220567;23;19953;-90
2024/03/23 16:31:31;;;;;;;;;;;;;;;;;;6247620;23;19938;-90
2024/03/23 16:33:56;;;;;;;;;;;;;;;;;;6247320;23;19907;-90
2024/03/23 16:36:22;;;;;;;;;;;;;;;;;;6220137;23;19903;-90
2024/03/23 16:38:47;;;;;;;;;;;;;;;;;;6247368;23;20227;-90
2024/03/23 16:41:13;;;;;;;;;;;;;;;;;;6220472;23;19907;-90
2024/03/23 16:43:39;;;;;;;;;;;;;;;;;;6220423;23;19903;-90
2024/03/23 16:46:10;;;;;;;;;;;;;;;;;;6246955;23;19907;-90
2024/03/23 16:48:36;;;;;;;;;;;;;;;;;;6219677;23;20370;-90
2024/03/23 16:51:05;;;;;;;;;;;;;;;;;;6246849;23;19943;-90
2024/03/23 16:53:31;;;;;;;;;;;;;;;;;;6247116;23;20346;-90
2024/03/23 16:56:00;;;;;;;;;;;;;;;;;;6220205;23;19907;-90
2024/03/23 16:58:26;;;;;;;;;;;;;;;;;;6220214;23;19907;-90
2024/03/23 17:00:56;;;;;;;;;;;;;;;;;;6247238;23;19915;-90
2024/03/23 17:03:21;;;;;;;;;;;;;;;;;;6220227;23;20231;-90
2024/03/23 17:05:47;;;;;;;;;;;;;;;;;;6247070;23;19912;-90
2024/03/23 17:08:13;;;;;;;;;;;;;;;;;;6220284;23;19908;-90
2024/03/23 17:10:38;;;;;;;;;;;;;;;;;;6220238;23;19993;-90
2024/03/23 17:13:04;;;;;;;;;;;;;;;;;;6246961;23;19915;-90
2024/03/23 17:15:29;;;;;;;;;;;;;;;;;;6220161;23;20309;-90
2024/03/23 17:17:55;;;;;;;;;;;;;;;;;;6246994;23;19930;-90
2024/03/23 17:20:20;;;;;;;;;;;;;;;;;;6220136;23;19918;-90
2024/03/23 17:22:52;;;;;;;;;;;;;;;;;;6220365;23;19907;-90
2024/03/23 17:25:17;;;;;;;;;;;;;;;;;;6247747;23;19908;-89
2024/03/23 17:27:42;;;;;;;;;;;;;;;;;;6222023;23;20049;-90
2024/03/23 17:30:08;;;;;;;;;;;;;;;;;;6221378;23;19915;-90
2024/03/23 17:32:33;;;;;;;;;;;;;;;;;;6220033;23;19907;-90
2024/03/23 17:34:59;;;;;;;;;;;;;;;;;;6220085;23;19982;-90
2024/03/23 17:37:24;;;;;;;;;;;;;;;;;;6220018;23;19903;-90
2024/03/23 17:39:49;;;;;;;;;;;;;;;;;;6220301;23;20277;-90
2024/03/23 17:42:15;;;;;;;;;;;;;;;;;;6220029;23;20337;-90
2024/03/23 17:44:40;;;;;;;;;;;;;;;;;;6220118;23;19907;-90
2024/03/23 17:47:05;;;;;;;;;;;;;;;;;;6246763;23;19907;-89
2024/03/23 17:49:31;;;;;;;;;;;;;;;;;;6246854;23;19907;-90
2024/03/23 17:51:59;;;;;;;;;;;;;;;;;;6219946;23;19912;-90
2024/03/23 17:54:26;;;;;;;;;;;;;;;;;;6219770;23;19907;-90
2024/03/23 17:56:51;;;;;;;;;;;;;;;;;;6221642;23;19907;-90
2024/03/23 17:59:16;;;;;;;;;;;;;;;;;;6223199;23;20329;-90
2024/03/23 18:01:41;;;;;;;;;;;;;;;;;;6248969;23;19935;-89
2024/03/23 18:04:07;;;;;;;;;;;;;;;;;;6248701;23;19962;-91
2024/03/23 18:06:32;;;;;;;;;;;;;;;;;;6221913;23;19914;-91
2024/03/23 18:08:57;;;;;;;;;;;;;;;;;;6248270;23;19911;-89
2024/03/23 18:11:22;;;;;;;;;;;;;;;;;;6248696;23;19908;-89
2024/03/23 18:13:48;;;;;;;;;;;;;;;;;;6249040;23;19953;-89
2024/03/23 18:16:13;;;;;;;;;;;;;;;;;;6221547;23;20307;-89
2024/03/23 18:18:38;;;;;;;;;;;;;;;;;;6248603;23;19907;-89
2024/03/23 18:21:04;;;;;;;;;;;;;;;;;;6221684;23;20230;-88
2024/03/23 18:23:30;;;;;;;;;;;;;;;;;;6248450;23;19915;-87
2024/03/23 18:25:55;;;;;;;;;;;;;;;;;;6248389;23;19908;-90
2024/03/23 18:28:24;;;;;;;;;;;;;;;;;;6248789;23;19908;-89
2024/03/23 18:30:59;;;;;;;;;;;;;;;;;;6248513;23;19969;-89
2024/03/23 18:33:25;;;;;;;;;;;;;;;;;;6248557;23;19907;-89
2024/03/23 18:35:53;;;;;;;;;;;;;;;;;;6221439;23;19911;-89
2024/03/23 18:38:19;;;;;;;;;;;;;;;;;;6248463;23;19908;-91
2024/03/23 18:40:48;;;;;;;;;;;;;;;;;;6221441;23;20226;-89
2024/03/23 18:43:13;;;;;;;;;;;;;;;;;;6248191;23;19908;-88
2024/03/23 18:45:51;;;;;;;;;;;;;;;;;;6248322;23;19986;-88
2024/03/23 18:48:16;;;;;;;;;;;;;;;;;;6248152;23;19907;-89
2024/03/23 18:50:42;;;;;;;;;;;;;;;;;;6248179;23;20405;-89
2024/03/23 18:53:09;;;;;;;;;;;;;;;;;;6248241;23;19907;-88
2024/03/23 18:55:35;;;;;;;;;;;;;;;;;;6248137;23;19911;-89
2024/03/23 18:58:00;;;;;;;;;;;;;;;;;;6248659;23;20353;-88
2024/03/23 19:00:26;;;;;;;;;;;;;;;;;;6221302;23;19915;-89
2024/03/23 19:02:51;;;;;;;;;;;;;;;;;;6247984;23;19908;-90
2024/03/23 19:05:16;;;;;;;;;;;;;;;;;;6247999;23;20329;-89
2024/03/23 19:07:41;;;;;;;;;;;;;;;;;;6221161;23;19954;-89
2024/03/23 19:10:07;;;;;;;;;;;;;;;;;;6221103;23;19907;-90
2024/03/23 19:12:32;;;;;;;;;;;;;;;;;;6221171;23;19914;-89
2024/03/23 19:14:57;;;;;;;;;;;;;;;;;;6247999;23;20254;-89
2024/03/23 19:17:23;;;;;;;;;;;;;;;;;;6248152;23;19916;-90
2024/03/23 19:19:48;;;;;;;;;;;;;;;;;;6247809;23;20281;-88
2024/03/23 19:22:13;;;;;;;;;;;;;;;;;;6221058;23;19911;-88
2024/03/23 19:24:38;;;;;;;;;;;;;;;;;;6247776;23;19919;-88
2024/03/23 19:27:04;;;;;;;;;;;;;;;;;;6220821;23;19917;-89
2024/03/23 19:29:29;;;;;;;;;;;;;;;;;;6222818;23;20046;-89
2024/03/23 19:31:54;;;;;;;;;;;;;;;;;;6221095;23;19955;-90
2024/03/23 19:34:20;;;;;;;;;;;;;;;;;;6221361;23;19911;-90
2024/03/23 19:36:45;;;;;;;;;;;;;;;;;;6221138;23;19974;-89
2024/03/23 19:39:12;;;;;;;;;;;;;;;;;;6247583;23;20279;-88
2024/03/23 19:41:38;;;;;;;;;;;;;;;;;;6247882;23;19914;-88
2024/03/23 19:44:03;;;;;;;;;;;;;;;;;;6247930;23;19907;-89
2024/03/23 19:46:28;;;;;;;;;;;;;;;;;;6247524;23;20327;-90
2024/03/23 19:48:54;;;;;;;;;;;;;;;;;;6247358;23;19986;-89
2024/03/23 19:51:19;;;;;;;;;;;;;;;;;;6247699;23;19931;-88
2024/03/23 19:53:44;;;;;;;;;;;;;;;;;;6247485;23;19982;-89
2024/03/23 19:56:10;;;;;;;;;;;;;;;;;;6247544;23;19911;-89
2024/03/23 19:58:36;;;;;;;;;;;;;;;;;;6221295;23;19987;-89
2024/03/23 20:01:13;;;;;;;;;;;;;;;;;;6247619;23;20304;-89
2024/03/23 20:03:38;;;;;;;;;;;;;;;;;;6247575;23;20338;-89
2024/03/23 20:06:04;;;;;;;;;;;;;;;;;;6220432;23;19919;-90
2024/03/23 20:08:29;;;;;;;;;;;;;;;;;;6247599;23;20243;-89
2024/03/23 20:10:54;;;;;;;;;;;;;;;;;;6220858;23;19951;-89
2024/03/23 20:13:20;;;;;;;;;;;;;;;;;;6220513;23;19912;-89
2024/03/23 20:15:53;;;;;;;;;;;;;;;;;;6247561;23;19939;-89
2024/03/23 20:18:18;;;;;;;;;;;;;;;;;;6247246;23;19904;-89
2024/03/23 20:20:44;;;;;;;;;;;;;;;;;;6247435;23;20216;-89
2024/03/23 20:23:09;;;;;;;;;;;;;;;;;;6220394;23;19937;-88
2024/03/23 20:25:35;;;;;;;;;;;;;;;;;;6247657;23;19982;-90
2024/03/23 20:28:00;;;;;;;;;;;;;;;;;;6248124;23;19911;-88
2024/03/23 20:30:25;;;;;;;;;;;;;;;;;;6247290;23;20365;-90
2024/03/23 20:32:51;;;;;;;;;;;;;;;;;;6247218;23;19914;-90
2024/03/23 20:35:16;;;;;;;;;;;;;;;;;;6247679;23;20315;-92
2024/03/23 20:37:41;;;;;;;;;;;;;;;;;;6247325;23;19908;-89
2024/03/23 20:40:07;;;;;;;;;;;;;;;;;;6247373;23;20204;-90
2024/03/23 20:42:32;;;;;;;;;;;;;;;;;;6247612;23;19954;-89
2024/03/23 20:44:58;;;;;;;;;;;;;;;;;;6221050;23;20216;-89
2024/03/23 20:47:23;;;;;;;;;;;;;;;;;;6247119;23;20370;-89
2024/03/23 20:49:49;;;;;;;;;;;;;;;;;;6220316;23;19945;-90
2024/03/23 20:52:14;;;;;;;;;;;;;;;;;;6220331;23;19942;-89
2024/03/23 20:54:39;;;;;;;;;;;;;;;;;;6247127;23;19911;-88
2024/03/23 20:57:05;;;;;;;;;;;;;;;;;;6220279;23;20308;-88
2024/03/23 20:59:30;;;;;;;;;;;;;;;;;;6220085;23;19915;-89
2024/03/23 21:01:55;;;;;;;;;;;;;;;;;;6220168;23;20385;-88
2024/03/23 21:04:20;;;;;;;;;;;;;;;;;;6246680;23;19918;-88
2024/03/23 21:06:46;;;;;;;;;;;;;;;;;;6245834;23;19912;-88
2024/03/23 21:09:11;;;;;;;;;;;;;;;;;;6245608;23;19908;-88
2024/03/23 21:11:36;;;;;;;;;;;;;;;;;;6246058;23;20386;-89
2024/03/23 21:14:02;;;;;;;;;;;;;;;;;;6245908;23;19907;-88
2024/03/23 21:16:27;;;;;;;;;;;;;;;;;;6218931;23;19938;-88
2024/03/23 21:18:54;;;;;;;;;;;;;;;;;;6245738;23;19933;-88
2024/03/23 21:21:19;;;;;;;;;;;;;;;;;;6246062;23;20220;-88
2024/03/23 21:23:44;;;;;;;;;;;;;;;;;;6245952;23;19907;-88
2024/03/23 21:26:10;;;;;;;;;;;;;;;;;;6218744;23;19911;-88
2024/03/23 21:28:35;;;;;;;;;;;;;;;;;;6245497;23;20315;-88
2024/03/23 21:31:04;;;;;;;;;;;;;;;;;;6245586;23;19911;-88
2024/03/23 21:33:29;;;;;;;;;;;;;;;;;;6245531;23;19907;-88
2024/03/23 21:35:55;;;;;;;;;;;;;;;;;;6246704;23;20323;-88
2024/03/23 21:38:21;;;;;;;;;;;;;;;;;;6246866;23;19918;-88
2024/03/23 21:40:52;;;;;;;;;;;;;;;;;;6246714;23;19908;-89
2024/03/23 21:43:17;;;;;;;;;;;;;;;;;;6246771;23;19911;-88
2024/03/23 21:45:51;;;;;;;;;;;;;;;;;;6246754;23;19914;-88
2024/03/23 21:48:17;;;;;;;;;;;;;;;;;;6246479;23;19907;-88
2024/03/23 21:50:42;;;;;;;;;;;;;;;;;;6246585;23;20330;-88
2024/03/23 21:53:07;;;;;;;;;;;;;;;;;;6247077;23;19907;-89
2024/03/23 21:55:32;;;;;;;;;;;;;;;;;;6247166;23;19914;-88
2024/03/23 21:57:58;;;;;;;;;;;;;;;;;;6246836;23;19911;-88
2024/03/23 22:00:23;;;;;;;;;;;;;;;;;;6246524;23;19986;-88
2024/03/23 22:02:49;;;;;;;;;;;;;;;;;;6219868;23;19907;-88
2024/03/23 22:05:14;;;;;;;;;;;;;;;;;;6194940;23;1214999;-88
2024/03/23 22:07:39;;;;;;;;;;;;;;;;;;6248583;23;19912;-88
2024/03/23 22:10:06;;;;;;;;;;;;;;;;;;6248611;23;19907;-88
2024/03/23 22:12:31;;;;;;;;;;;;;;;;;;6248434;23;19908;-89
2024/03/23 22:14:57;;;;;;;;;;;;;;;;;;6221954;23;19907;-88
2024/03/23 22:17:23;;;;;;;;;;;;;;;;;;6248528;23;20248;-88
2024/03/23 22:19:49;;;;;;;;;;;;;;;;;;6248495;23;19908;-88
2024/03/23 22:22:14;;;;;;;;;;;;;;;;;;6221675;23;19982;-88
2024/03/23 22:24:39;;;;;;;;;;;;;;;;;;6248446;23;19915;-88
2024/03/23 22:27:05;;;;;;;;;;;;;;;;;;6221685;23;19991;-89
2024/03/23 22:29:30;;;;;;;;;;;;;;;;;;6221433;23;19919;-88
2024/03/23 22:31:55;;;;;;;;;;;;;;;;;;6248719;23;20243;-88
2024/03/23 22:34:21;;;;;;;;;;;;;;;;;;6221515;23;19934;-88
2024/03/23 22:36:46;;;;;;;;;;;;;;;;;;6248730;23;19939;-88
2024/03/23 22:39:11;;;;;;;;;;;;;;;;;;6221335;23;19908;-87
2024/03/23 22:41:37;;;;;;;;;;;;;;;;;;6248304;23;20238;-89
2024/03/23 22:44:02;;;;;;;;;;;;;;;;;;6248434;23;19935;-89
2024/03/23 22:46:27;;;;;;;;;;;;;;;;;;6220717;23;19908;-88
2024/03/23 22:48:53;;;;;;;;;;;;;;;;;;6248237;23;19908;-89
2024/03/23 22:51:19;;;;;;;;;;;;;;;;;;6248295;23;19907;-89
2024/03/23 22:53:44;;;;;;;;;;;;;;;;;;6221385;23;19908;-89
2024/03/23 22:56:09;;;;;;;;;;;;;;;;;;6248308;23;20244;-88
2024/03/23 22:58:35;;;;;;;;;;;;;;;;;;6248280;23;19991;-89
2024/03/23 23:01:06;;;;;;;;;;;;;;;;;;6221112;23;19912;-89
2024/03/23 23:03:32;;;;;;;;;;;;;;;;;;6221723;23;19934;-88
2024/03/23 23:06:04;;;;;;;;;;;;;;;;;;6248039;23;20231;-88
2024/03/23 23:08:30;;;;;;;;;;;;;;;;;;6248391;23;19912;-88
2024/03/23 23:10:55;;;;;;;;;;;;;;;;;;6248361;23;19914;-88
2024/03/23 23:13:20;;;;;;;;;;;;;;;;;;6221354;23;19911;-88
2024/03/23 23:15:47;;;;;;;;;;;;;;;;;;6221335;23;20242;-88
2024/03/23 23:18:17;;;;;;;;;;;;;;;;;;6248329;23;19907;-88
2024/03/23 23:20:42;;;;;;;;;;;;;;;;;;6248016;23;19914;-88
2024/03/23 23:23:07;;;;;;;;;;;;;;;;;;6247912;23;19978;-88
2024/03/23 23:25:33;;;;;;;;;;;;;;;;;;6247809;23;19915;-87
2024/03/23 23:27:58;;;;;;;;;;;;;;;;;;6221334;23;20243;-88
2024/03/23 23:30:23;;;;;;;;;;;;;;;;;;6248854;23;20330;-88
2024/03/23 23:32:49;;;;;;;;;;;;;;;;;;6248163;23;19934;-89
2024/03/23 23:35:14;;;;;;;;;;;;;;;;;;6247933;23;19908;-89
2024/03/23 23:37:39;;;;;;;;;;;;;;;;;;6196164;23;19915;-88
2024/03/23 23:40:05;;;;;;;;;;;;;;;;;;6247985;23;19990;-89
2024/03/23 23:42:32;;;;;;;;;;;;;;;;;;6247509;23;19981;-89
2024/03/23 23:44:58;;;;;;;;;;;;;;;;;;6221170;23;19991;-89
2024/03/23 23:47:23;;;;;;;;;;;;;;;;;;6221038;23;19947;-88
2024/03/23 23:49:48;;;;;;;;;;;;;;;;;;6247760;23;20311;-89
2024/03/23 23:52:14;;;;;;;;;;;;;;;;;;6247921;23;19914;-89
2024/03/23 23:54:39;;;;;;;;;;;;;;;;;;6220944;23;20231;-89
2024/03/23 23:57:05;;;;;;;;;;;;;;;;;;6247179;23;19946;-88
2024/03/23 23:59:30;;;;;;;;;;;;;;;;;;6220732;23;19911;-89
